Sayre, OK (73662)

6:01 PM CDT on August 04, 2015 (GMT -0500)
Western Oklahoma | | Change Station
CLOSE
Current Station
Personal Weather Station
Location: Erick, OK
Elevation: 1978 ft
Nearby Weather Stations

Elev 1978 ft 35.25 °N, 99.79 °W | Updated 12 seconds ago

Clear
Clear
94.5 °F
Feels Like 107 °F
N
0.0
Wind Variable Wind from SSW
Gusts 0.0 mph

Today
High -- | Low -- °F
--% Chance of Precip.
Yesterday
High -- | Low -- °F
Precip. -- in
6:49 AM 8:39 PM
Waning Gibbous, 73% visible
Pressure 29.86 in
Visibility 10.0 miles
Clouds Clear
Heat Index 107 °F
Dew Point 75 °F
Humidity 54%
Rainfall 1.09 in
Snow Depth Not available.
UV 4 out of 12
Pollen 5.10 out of 12
Air Quality Not available.
Flu Activity Not available.
METAR KCSM 042253Z 20010KT 10SM CLR 32/21 A2993 RMK AO2 SLP109 T03220206

More Conditions Fewer Conditions

Pressure 29.86 in
Visibility 10.0 miles
Clouds Clear
Heat Index 107 °F
Dew Point 75 °F
Humidity 54%
Rainfall 1.09 in
Snow Depth Not available.
UV 4 out of 12
Pollen 5.10 out of 12
Air Quality Not available.
Flu Activity Not available.
METAR KCSM 042253Z 20010KT 10SM CLR 32/21 A2993 RMK AO2 SLP109 T03220206

More Conditions Fewer Conditions

10-Day Weather Forecast

×

Almanac

Astronomy

Aug. 04, 2015 Rise Set
Actual Time
Civil Twilight
Nautical Twilight
Astronomical Twilight
Moon
Length of Visible Light
Length of Day
Tomorrow will be .
, % of the Moon is Illuminated

Today's Extremes

State Highs State Lows

Community

WunderPhotos

Upload Photos

1,844,017 photos uploaded!

WunderBlogs® & News

Nearby

Air Quality

  Air Quality AQ Index Pollutant
Not available.

Snow Depth

Station Depth Elevation

Earthquake Activity

City Distance Mag. Time & Date
Minimum magnitude displayed is 2.5.

Coastal Water Temperatures

Place Temperature

Stations

Nearby Weather Stations

Station Location Temp. Windchill Dew Point Humidity Wind Precip. Elev Updated Type